createdAt,value
2023-01-19T00:02:04.238Z,98842.34
2023-01-19T00:05:06.136Z,98844.59
2023-01-19T00:08:14.751Z,98854.06
2023-01-19T00:11:19.377Z,98855.94
2023-01-19T00:14:21.080Z,98850.06
2023-01-19T00:17:22.672Z,98852.72
2023-01-19T00:20:24.096Z,98846.94
2023-01-19T00:23:25.935Z,98852.31
2023-01-19T00:26:27.438Z,98854.81
2023-01-19T00:29:33.368Z,98851.47
2023-01-19T00:32:34.971Z,98856.41
2023-01-19T00:35:36.773Z,98858.69
2023-01-19T00:38:38.976Z,98863.00
2023-01-19T00:41:59.097Z,98871.22
2023-01-19T00:45:00.589Z,98867.13
2023-01-19T00:48:02.359Z,98869.72
2023-01-19T00:51:03.946Z,98867.94
2023-01-19T00:54:05.433Z,98874.34
2023-01-19T00:57:07.017Z,98876.69
2023-01-19T01:00:11.946Z,98880.19
2023-01-19T01:03:13.399Z,98882.06
2023-01-19T01:06:14.920Z,98886.00
2023-01-19T01:09:16.388Z,98882.38
2023-01-19T01:12:17.919Z,98882.31
2023-01-19T01:15:19.788Z,98889.38
2023-01-19T01:18:21.925Z,98890.41
2023-01-19T01:21:23.793Z,98879.69
2023-01-19T01:24:25.241Z,98892.34
2023-01-19T01:27:26.651Z,98893.28
2023-01-19T01:30:28.105Z,98891.00
2023-01-19T01:33:40.737Z,98891.78
2023-01-19T01:36:43.566Z,98897.81
2023-01-19T01:39:45.018Z,98891.63
2023-01-19T01:42:46.689Z,98897.50
2023-01-19T01:45:48.398Z,98891.28
2023-01-19T01:48:53.914Z,98885.94
2023-01-19T01:51:55.409Z,98895.63
2023-01-19T01:54:58.122Z,98891.88
2023-01-19T01:58:03.746Z,98891.69
2023-01-19T02:01:25.432Z,98896.75
2023-01-19T02:04:31.819Z,98905.38
2023-01-19T02:08:04.318Z,98901.31
2023-01-19T02:11:25.139Z,98900.03
2023-01-19T02:14:26.598Z,98895.56
2023-01-19T02:17:28.315Z,98894.44
2023-01-19T02:20:33.513Z,98893.31
2023-01-19T02:23:40.550Z,98895.72
2023-01-19T02:26:46.862Z,98892.53
2023-01-19T02:29:48.519Z,98892.25
2023-01-19T02:32:50.210Z,98887.13
2023-01-19T02:35:54.573Z,98885.03
2023-01-19T02:38:57.855Z,98883.59
2023-01-19T02:42:04.374Z,98886.91
2023-01-19T02:45:09.500Z,98893.06
2023-01-19T02:48:11.332Z,98890.41
2023-01-19T02:51:21.076Z,98885.03
2023-01-19T02:54:49.176Z,98882.38
2023-01-19T02:58:10.334Z,98894.31
2023-01-19T03:01:56.103Z,98882.06
2023-01-19T03:05:14.150Z,98895.75
2023-01-19T03:08:39.867Z,98887.31
2023-01-19T03:11:46.839Z,98890.19
2023-01-19T03:14:48.944Z,98883.50
2023-01-19T03:17:52.179Z,98890.81
2023-01-19T03:20:57.851Z,98888.47
2023-01-19T03:24:03.137Z,98888.03
2023-01-19T03:27:10.993Z,98896.38
2023-01-19T03:30:24.135Z,98899.47
2023-01-19T03:33:30.703Z,98904.59
2023-01-19T03:36:37.011Z,98906.13
2023-01-19T03:39:38.515Z,98898.47
2023-01-19T03:42:41.088Z,98906.84
2023-01-19T03:45:43.209Z,98901.31
2023-01-19T03:48:46.062Z,98901.81
2023-01-19T03:51:47.675Z,98908.09
2023-01-19T03:54:49.217Z,98901.50
2023-01-19T03:57:50.649Z,98903.78
2023-01-19T04:00:52.508Z,98907.88
2023-01-19T04:03:54.278Z,98902.56
2023-01-19T04:06:55.748Z,98904.59
2023-01-19T04:09:57.210Z,98908.31
2023-01-19T04:13:00.683Z,98915.69
2023-01-19T04:16:04.016Z,98920.25
2023-01-19T04:19:05.463Z,98917.34
2023-01-19T04:22:06.929Z,98924.31
2023-01-19T04:25:09.672Z,98915.88
2023-01-19T04:28:11.721Z,98926.00
2023-01-19T04:31:13.295Z,98924.91
2023-01-19T04:34:14.804Z,98925.84
2023-01-19T04:37:16.227Z,98930.69
2023-01-19T04:40:17.809Z,98930.28
2023-01-19T04:43:20.536Z,98931.09
2023-01-19T04:46:22.002Z,98933.97
2023-01-19T04:49:23.921Z,98938.25
2023-01-19T04:52:25.586Z,98945.00
2023-01-19T04:55:27.175Z,98943.06
2023-01-19T04:58:28.629Z,98940.13
2023-01-19T05:01:30.238Z,98937.19
2023-01-19T05:04:32.009Z,98948.50
2023-01-19T05:07:33.526Z,98945.53
2023-01-19T05:10:36.524Z,98948.59
2023-01-19T05:13:38.018Z,98946.81
2023-01-19T05:16:39.518Z,98949.81
2023-01-19T05:19:40.959Z,98949.94
2023-01-19T05:22:42.522Z,98951.72
2023-01-19T05:25:44.537Z,98958.72
2023-01-19T05:28:46.043Z,98961.50
2023-01-19T05:31:47.589Z,98970.63
2023-01-19T05:34:49.079Z,98967.22
2023-01-19T05:37:50.832Z,98980.47
2023-01-19T05:40:58.063Z,98965.28
2023-01-19T05:43:59.544Z,98967.22
2023-01-19T05:47:01.072Z,98970.56
2023-01-19T05:50:02.654Z,98968.44
2023-01-19T05:53:04.433Z,98970.91
2023-01-19T05:56:11.372Z,98979.66
2023-01-19T05:59:12.860Z,98980.66
2023-01-19T06:02:14.529Z,98980.28
2023-01-19T06:05:16.945Z,98982.19
2023-01-19T06:08:18.573Z,98981.63
2023-01-19T06:11:20.943Z,98979.09
2023-01-19T06:14:22.359Z,98982.50
2023-01-19T06:17:24.160Z,98988.91
2023-01-19T06:20:25.656Z,98973.53
2023-01-19T06:23:32.426Z,98980.13
2023-01-19T06:26:34.020Z,98977.03
2023-01-19T06:29:35.549Z,98992.22
2023-01-19T06:32:37.284Z,98985.34
2023-01-19T06:35:38.736Z,98994.50
2023-01-19T06:38:40.311Z,98986.84
2023-01-19T06:41:41.963Z,98984.06
2023-01-19T06:44:47.401Z,98983.69
2023-01-19T06:47:48.942Z,98987.81
2023-01-19T06:50:50.538Z,98981.00
2023-01-19T06:53:51.979Z,98995.00
2023-01-19T06:56:53.395Z,98989.44
2023-01-19T06:59:54.865Z,98988.00
2023-01-19T07:02:56.578Z,98998.28
2023-01-19T07:06:00.215Z,98999.09
2023-01-19T07:09:07.016Z,98996.59
2023-01-19T07:12:09.300Z,98996.13
2023-01-19T07:15:11.780Z,98992.75
2023-01-19T07:18:13.201Z,99002.22
2023-01-19T07:21:15.349Z,99001.88
2023-01-19T07:24:16.848Z,99005.59
2023-01-19T07:27:18.346Z,99005.91
2023-01-19T07:30:19.874Z,99012.50
2023-01-19T07:33:28.692Z,99007.16
2023-01-19T07:36:30.335Z,99012.13
2023-01-19T07:39:32.244Z,99006.53
2023-01-19T07:42:33.730Z,99011.41
2023-01-19T07:45:36.088Z,99011.13
2023-01-19T07:48:37.507Z,99016.53
2023-01-19T07:51:39.130Z,99016.84
2023-01-19T07:54:40.599Z,99020.06
2023-01-19T07:57:42.129Z,99027.56
2023-01-19T08:00:43.647Z,99032.63
2023-01-19T08:03:47.163Z,99034.16
2023-01-19T08:06:48.727Z,99043.56
2023-01-19T08:09:50.188Z,99039.66
2023-01-19T08:12:55.479Z,99040.28
2023-01-19T08:15:57.002Z,99047.13
2023-01-19T08:18:58.514Z,99047.25
2023-01-19T08:22:00.216Z,99052.69
2023-01-19T08:25:01.740Z,99048.81
2023-01-19T08:28:05.569Z,99054.47
2023-01-19T08:31:19.177Z,99057.44
2023-01-19T08:34:21.761Z,99060.56
2023-01-19T08:37:24.750Z,99063.44
2023-01-19T08:40:26.644Z,99066.44
2023-01-19T08:43:28.118Z,99066.13
2023-01-19T08:46:29.678Z,99076.25
2023-01-19T08:49:31.362Z,99073.75
2023-01-19T08:52:32.789Z,99080.38
2023-01-19T08:55:37.546Z,99074.59
2023-01-19T08:58:43.872Z,99084.28
2023-01-19T09:01:45.553Z,99080.38
2023-01-19T09:04:47.091Z,99080.59
2023-01-19T09:07:48.557Z,99081.81
2023-01-19T09:10:51.547Z,99071.81
2023-01-19T09:13:53.068Z,99070.88
2023-01-19T09:16:56.165Z,99076.97
2023-01-19T09:19:58.408Z,99073.53
2023-01-19T09:23:00.365Z,99080.75
2023-01-19T09:26:03.619Z,99080.84
2023-01-19T09:29:05.077Z,99085.09
2023-01-19T09:32:06.575Z,99089.53
2023-01-19T09:35:08.419Z,99088.72
2023-01-19T09:38:11.011Z,99089.78
2023-01-19T09:41:21.345Z,99088.59
2023-01-19T09:44:31.809Z,99091.66
2023-01-19T09:47:36.746Z,99090.53
2023-01-19T09:50:46.586Z,99090.03
2023-01-19T09:54:05.118Z,99091.88
2023-01-19T09:57:11.548Z,99090.75
2023-01-19T10:00:24.285Z,99088.66
2023-01-19T10:03:25.746Z,99080.41
2023-01-19T10:06:27.831Z,99083.38
2023-01-19T10:09:53.408Z,99085.94
2023-01-19T10:13:34.390Z,99082.00
2023-01-19T10:17:00.878Z,99074.47
2023-01-19T10:20:04.780Z,99076.28
2023-01-19T10:23:38.454Z,99072.63
2023-01-19T10:26:52.755Z,99082.31
2023-01-19T10:29:54.640Z,99073.91
2023-01-19T10:32:56.156Z,99072.31
2023-01-19T10:35:57.639Z,99081.66
2023-01-19T10:38:59.193Z,99078.38
2023-01-19T10:42:03.504Z,99075.06
2023-01-19T10:45:29.284Z,99083.66
2023-01-19T10:48:38.805Z,99078.84
2023-01-19T10:51:48.940Z,99080.34
2023-01-19T10:54:50.906Z,99082.16
2023-01-19T10:57:53.597Z,99076.13
2023-01-19T11:00:55.580Z,99072.97
2023-01-19T11:04:05.436Z,99078.50
2023-01-19T11:07:23.656Z,99072.13
2023-01-19T11:10:26.489Z,99069.50
2023-01-19T11:13:28.353Z,99061.88
2023-01-19T11:16:34.720Z,99072.38
2023-01-19T11:19:36.336Z,99069.06
2023-01-19T11:22:37.909Z,99071.63
2023-01-19T11:25:39.457Z,99076.13
2023-01-19T11:28:45.713Z,99072.59
2023-01-19T11:31:47.686Z,99074.69
2023-01-19T11:34:49.955Z,99078.03
2023-01-19T11:38:13.212Z,99073.78
2023-01-19T11:41:23.746Z,99074.22
2023-01-19T11:44:39.105Z,99069.88
2023-01-19T11:47:52.579Z,99064.16
2023-01-19T11:50:55.411Z,99066.59
2023-01-19T11:53:56.971Z,99068.13
2023-01-19T11:57:00.172Z,99059.03
2023-01-19T12:00:17.597Z,99058.94
2023-01-19T12:03:21.968Z,99061.69
2023-01-19T12:06:29.551Z,99060.00
2023-01-19T12:09:34.377Z,99058.22
2023-01-19T12:12:39.969Z,99053.47
2023-01-19T12:15:47.355Z,99053.69
2023-01-19T12:19:07.420Z,99048.13
2023-01-19T12:22:15.776Z,99048.72
2023-01-19T12:25:24.879Z,99049.75
2023-01-19T12:28:31.679Z,99048.41
2023-01-19T12:31:33.719Z,99050.38
2023-01-19T12:34:47.644Z,99052.13
2023-01-19T12:37:49.103Z,99040.75
2023-01-19T12:40:50.595Z,99041.22
2023-01-19T12:44:16.560Z,99034.25
2023-01-19T12:47:20.968Z,99028.88
2023-01-19T12:50:25.876Z,99028.72
2023-01-19T12:53:27.601Z,99026.69
2023-01-19T12:56:31.141Z,99028.03
2023-01-19T12:59:36.733Z,99029.94
2023-01-19T13:02:47.453Z,99030.75
2023-01-19T13:05:55.089Z,99032.28
2023-01-19T13:09:00.040Z,99032.06
2023-01-19T13:12:19.632Z,99023.13
2023-01-19T13:15:36.574Z,99026.41
2023-01-19T13:18:41.624Z,99025.84
2023-01-19T13:21:48.455Z,99026.78
2023-01-19T13:25:13.083Z,99027.38
2023-01-19T13:28:17.817Z,99032.19
2023-01-19T13:31:20.353Z,99024.66
2023-01-19T13:34:27.787Z,99034.59
2023-01-19T13:37:38.913Z,99031.00
2023-01-19T13:40:40.775Z,99037.84
2023-01-19T13:43:43.131Z,99031.00
2023-01-19T13:46:46.133Z,99027.25
2023-01-19T13:49:50.965Z,99035.47
2023-01-19T13:52:55.412Z,99033.81
2023-01-19T13:56:17.449Z,99029.34
2023-01-19T13:59:18.876Z,99035.00
2023-01-19T14:02:21.198Z,99032.28
2023-01-19T14:05:28.827Z,99035.00
2023-01-19T14:08:32.808Z,99037.56
2023-01-19T14:11:34.679Z,99043.69
2023-01-19T14:14:36.266Z,99043.44
2023-01-19T14:17:37.740Z,99041.09
2023-01-19T14:20:39.533Z,99041.34
2023-01-19T14:24:05.929Z,99044.16
2023-01-19T14:27:18.153Z,99042.88
2023-01-19T14:30:25.115Z,99052.41
2023-01-19T14:33:43.609Z,99046.41
2023-01-19T14:36:45.111Z,99045.09
2023-01-19T14:40:12.865Z,99035.47
2023-01-19T14:43:14.356Z,99044.06
2023-01-19T14:46:20.625Z,99039.94
2023-01-19T14:49:46.782Z,99041.59
2023-01-19T14:53:01.900Z,99051.44
2023-01-19T14:56:05.603Z,99057.69
2023-01-19T14:59:10.843Z,99050.28
2023-01-19T15:02:12.993Z,99049.09
2023-01-19T15:05:14.670Z,99055.00
2023-01-19T15:08:29.947Z,99054.75
2023-01-19T15:11:33.767Z,99051.69
2023-01-19T15:14:35.323Z,99045.09
2023-01-19T15:17:37.063Z,99049.94
2023-01-19T15:20:38.514Z,99048.72
2023-01-19T15:23:40.209Z,99047.91
2023-01-19T15:26:42.974Z,99046.50
2023-01-19T15:29:45.106Z,99049.13
2023-01-19T15:32:46.874Z,99050.97
2023-01-19T15:35:49.162Z,99050.41
2023-01-19T15:38:51.157Z,99042.28
2023-01-19T15:41:52.897Z,99052.84
2023-01-19T15:44:54.446Z,99057.06
2023-01-19T15:47:55.970Z,99048.34
2023-01-19T15:50:57.815Z,99043.66
2023-01-19T15:53:59.424Z,99055.56
2023-01-19T15:57:00.911Z,99042.59
2023-01-19T16:00:04.707Z,99047.06
2023-01-19T16:03:11.563Z,99040.38
2023-01-19T16:06:14.040Z,99049.66
2023-01-19T16:09:18.468Z,99040.22
2023-01-19T16:12:19.965Z,99041.66
2023-01-19T16:15:22.618Z,99043.22
2023-01-19T16:18:24.133Z,99052.38
2023-01-19T16:21:25.866Z,99049.69
2023-01-19T16:24:27.356Z,99051.44
2023-01-19T16:27:28.949Z,99053.34
2023-01-19T16:30:30.778Z,99049.56
2023-01-19T16:33:32.395Z,99058.13
2023-01-19T16:36:36.252Z,99054.31
2023-01-19T16:39:40.724Z,99054.91
2023-01-19T16:42:42.483Z,99049.44
2023-01-19T16:45:56.300Z,99048.34
2023-01-19T16:49:06.338Z,99050.63
2023-01-19T16:52:07.998Z,99051.69
2023-01-19T16:55:11.251Z,99047.50
2023-01-19T16:58:12.733Z,99052.69
2023-01-19T17:01:20.198Z,99044.53
2023-01-19T17:04:22.378Z,99048.06
2023-01-19T17:07:23.838Z,99039.63
2023-01-19T17:10:25.372Z,99041.03
2023-01-19T17:13:26.821Z,99033.53
2023-01-19T17:16:31.091Z,99039.25
2023-01-19T17:19:32.679Z,99040.56
2023-01-19T17:22:34.085Z,99037.19
2023-01-19T17:25:36.785Z,99041.66
2023-01-19T17:28:38.593Z,99042.81
2023-01-19T17:31:40.546Z,99045.84
2023-01-19T17:34:42.091Z,99047.63
2023-01-19T17:37:43.623Z,99043.66
2023-01-19T17:40:45.203Z,99043.16
2023-01-19T17:43:47.279Z,99042.00
2023-01-19T17:46:48.931Z,99044.22
2023-01-19T17:49:50.395Z,99044.13
2023-01-19T17:52:52.705Z,99049.13
2023-01-19T17:55:54.418Z,99045.69
2023-01-19T17:58:57.235Z,99048.88
2023-01-19T18:01:59.006Z,99042.56
2023-01-19T18:05:02.455Z,99042.44
2023-01-19T18:08:04.547Z,99048.44
2023-01-19T18:11:06.676Z,99046.72
2023-01-19T18:14:09.414Z,99043.50
2023-01-19T18:17:11.480Z,99037.97
2023-01-19T18:20:13.772Z,99041.47
2023-01-19T18:23:15.786Z,99042.31
2023-01-19T18:26:21.049Z,99044.56
2023-01-19T18:29:23.170Z,99045.16
2023-01-19T18:32:27.110Z,99035.34
2023-01-19T18:35:29.166Z,99042.44
2023-01-19T18:38:31.264Z,99037.28
2023-01-19T18:41:34.046Z,99040.06
2023-01-19T18:44:35.625Z,99044.75
2023-01-19T18:47:37.268Z,99038.44
2023-01-19T18:50:38.790Z,99053.84
2023-01-19T18:53:40.681Z,99045.69
2023-01-19T18:56:42.151Z,99048.00
2023-01-19T18:59:43.978Z,99044.31
2023-01-19T19:02:45.418Z,99046.19
2023-01-19T19:05:47.459Z,99043.53
2023-01-19T19:08:50.834Z,99043.16
2023-01-19T19:11:52.435Z,99043.25
2023-01-19T19:14:53.864Z,99049.38
2023-01-19T19:17:55.326Z,99046.44
2023-01-19T19:20:56.783Z,99050.41
2023-01-19T19:23:58.318Z,99048.06
2023-01-19T19:27:14.799Z,99051.09
2023-01-19T19:30:16.573Z,99051.44
2023-01-19T19:33:18.035Z,99051.59
2023-01-19T19:36:21.233Z,99053.59
2023-01-19T19:39:22.753Z,99058.19
2023-01-19T19:42:24.789Z,99054.91
2023-01-19T19:45:26.874Z,99058.41
2023-01-19T19:48:28.711Z,99056.63
2023-01-19T19:51:30.164Z,99063.47
2023-01-19T19:54:31.637Z,99062.91
2023-01-19T19:57:33.219Z,99065.69
2023-01-19T20:00:34.757Z,99064.72
2023-01-19T20:03:36.444Z,99065.34
2023-01-19T20:06:44.630Z,99061.06
2023-01-19T20:09:46.401Z,99072.56
2023-01-19T20:12:47.876Z,99062.94
2023-01-19T20:15:49.405Z,99067.91
2023-01-19T20:18:53.907Z,99066.34
2023-01-19T20:21:55.575Z,99058.72
2023-01-19T20:24:57.223Z,99065.41
2023-01-19T20:27:59.381Z,99067.03
2023-01-19T20:31:11.833Z,99065.97
2023-01-19T20:34:16.151Z,99065.16
2023-01-19T20:37:17.856Z,99069.94
2023-01-19T20:40:19.615Z,99071.47
2023-01-19T20:43:21.168Z,99074.88
2023-01-19T20:46:22.630Z,99077.34
2023-01-19T20:49:24.506Z,99074.53
2023-01-19T20:52:26.073Z,99077.78
2023-01-19T20:55:27.909Z,99088.78
2023-01-19T20:58:31.230Z,99087.75
2023-01-19T21:01:32.760Z,99091.91
2023-01-19T21:04:34.280Z,99089.31
2023-01-19T21:07:35.800Z,99085.53
2023-01-19T21:10:37.371Z,99092.47
2023-01-19T21:13:38.959Z,99096.63
2023-01-19T21:16:42.509Z,99098.75
2023-01-19T21:19:44.037Z,99097.66
2023-01-19T21:22:45.580Z,99106.66
2023-01-19T21:25:51.024Z,99107.91
2023-01-19T21:28:52.481Z,99108.09
2023-01-19T21:31:54.191Z,99114.56
2023-01-19T21:34:55.734Z,99108.25
2023-01-19T21:37:58.139Z,99111.41
2023-01-19T21:41:04.398Z,99119.44
2023-01-19T21:44:06.066Z,99119.44
2023-01-19T21:47:09.708Z,99114.31
2023-01-19T21:50:11.346Z,99117.06
2023-01-19T21:53:12.894Z,99115.41
2023-01-19T21:56:16.710Z,99137.03
2023-01-19T21:59:20.330Z,99132.00
2023-01-19T22:02:37.645Z,99128.44
2023-01-19T22:05:39.876Z,99136.47
2023-01-19T22:08:41.819Z,99148.59
2023-01-19T22:11:43.302Z,99145.31
2023-01-19T22:14:44.871Z,99153.06
2023-01-19T22:17:46.348Z,99146.13
2023-01-19T22:20:47.745Z,99150.38
2023-01-19T22:23:50.684Z,99156.25
2023-01-19T22:26:52.179Z,99158.16
2023-01-19T22:29:53.956Z,99152.63
2023-01-19T22:32:55.557Z,99163.97
2023-01-19T22:36:09.870Z,99162.84
2023-01-19T22:39:12.933Z,99163.16
2023-01-19T22:42:14.399Z,99162.28
2023-01-19T22:45:16.128Z,99161.84
2023-01-19T22:48:17.570Z,99160.03
2023-01-19T22:51:20.626Z,99162.94
2023-01-19T22:54:23.133Z,99164.56
2023-01-19T22:57:24.812Z,99172.28
2023-01-19T23:00:26.551Z,99172.38
2023-01-19T23:03:29.067Z,99167.66
2023-01-19T23:06:31.677Z,99164.53
2023-01-19T23:09:34.219Z,99168.66
2023-01-19T23:12:35.690Z,99173.50
2023-01-19T23:15:37.216Z,99167.97
2023-01-19T23:18:39.483Z,99171.28
2023-01-19T23:21:41.003Z,99177.00
2023-01-19T23:24:42.490Z,99182.59
2023-01-19T23:27:43.980Z,99181.13
2023-01-19T23:30:45.603Z,99173.44
2023-01-19T23:33:47.119Z,99184.38
2023-01-19T23:36:48.785Z,99187.56
2023-01-19T23:39:50.209Z,99193.47
2023-01-19T23:42:51.760Z,99189.41
2023-01-19T23:45:53.247Z,99194.28
2023-01-19T23:48:55.216Z,99193.75
2023-01-19T23:51:59.165Z,99201.50
2023-01-19T23:55:00.632Z,99205.66
2023-01-19T23:58:02.173Z,99205.44
